Alden, Iowa
Current Conditions -  °F | °C
As of 7:35 PM on Tuesday 25 Nov 2014 (Local Time) from KIFA Reporting Station
Scattered Clouds Scattered Clouds  
Wind Chill: -10°   Ceiling: Unl
Heat Index: -5°   Visibility: 10mi
Dew Point: -8°   Wind: 8mph
Humidity: 82%   Direction: 130°SE
Pressure: 30.04"   Gusts: NA
Location:  42.52°N, 93.38°W
Report Text: KIFA 260135Z AUTO 13007KT 10SM SCT070 M05/M08 A3004 RMK AO2 T10531080
Loading
Personal Weather Stations






























Interactive Weather Map New forecast layout! Learn more

10-Day Weather Forecast

Advertisements
Track Severe Weather on mobile